Huvudsida
METAR-TAF:

METAR-TAF

Flygplatser :

Vadodara Airport

Vadodara, Indien

latitud: 22-19-46N, longitud: 73-13-10E, höjd: 39 m

Aktuellt väderrapport

Denna rapport gjordes för 24 minuter sedan, klockan 09:00 UTC
Vind 8 kt från nordväst
Temperatur 42°C
Fuktighet 27%
Tryck 1002 hPa
Sikt: 6000 m
Få moln på en höjd av 8000 ft

METAR: VABO 200900Z 32008KT 6000 FEW080 42/19 Q1002 NOSIG

Tid: 14:54 (09:24 UTC)

Väderprognos

Denna rapport gjordes för 1 timme och 24 minuter sedan, klockan 08:00 UTC
Prognos gäller från 20 kl. 09 UTC till 20 kl. 18 UTC
Vind 10 kt från väst/nordväst
Sikt: 6000 m
Få moln på en höjd av 8000 ft
Blir
från 20 kl. 13 UTC till 20 kl. 15 UTC
Vind 8 kt från väst
Sikt: 5000 m
rök
Blir
från 20 kl. 16 UTC till 20 kl. 18 UTC
Vind 5 kt från väst
Sikt: 4000 m

TAF: VABO 200800Z 2009/2018 30010KT 6000 FEW080 BECMG 2013/2015 27008KT 5000 FU NSC BECMG 2016/2018 27005KT 4000

Aktuella väderrapporter och prognoser från 4000 flygplatser (METAR- och TAF-rapporter).

De tillgängliga stationerna syns som gula och röda prickar på kartan.

För musen över prickarna för att se namnen på stationerna.

Klicka sedan för att få väderrapporter och prognoser.

För att ändra kartan: Klicka på de gröna knapparna med ett svart kors på för att zooma in; den gröna knappen med ett streck på för att zooma ut; eller på de gröna pilarna för angränsande kartor.


METAR-TAF: